createdAt,value
2022-10-05T00:00:15.968Z,93822.09
2022-10-05T00:03:18.997Z,93822.19
2022-10-05T00:06:21.995Z,93817.47
2022-10-05T00:09:25.056Z,93824.31
2022-10-05T00:12:30.458Z,93824.88
2022-10-05T00:15:33.577Z,93821.72
2022-10-05T00:18:36.582Z,93829.63
2022-10-05T00:21:39.743Z,93828.66
2022-10-05T00:24:42.854Z,93824.50
2022-10-05T00:27:55.460Z,93837.94
2022-10-05T00:30:59.890Z,93831.88
2022-10-05T00:34:03.001Z,93833.72
2022-10-05T00:37:07.090Z,93845.00
2022-10-05T00:40:27.926Z,93839.81
2022-10-05T00:43:51.192Z,93840.47
2022-10-05T00:47:14.370Z,93838.72
2022-10-05T00:50:49.312Z,93840.41
2022-10-05T00:54:02.646Z,93831.56
2022-10-05T00:57:14.408Z,93835.25
2022-10-05T01:00:21.049Z,93838.06
2022-10-05T01:03:38.792Z,93836.38
2022-10-05T01:06:53.666Z,93831.97
2022-10-05T01:10:05.219Z,93833.63
2022-10-05T01:13:11.232Z,93839.94
2022-10-05T01:16:32.147Z,93834.66
2022-10-05T01:19:38.019Z,93838.22
2022-10-05T01:22:42.414Z,93840.53
2022-10-05T01:26:12.832Z,93843.59
2022-10-05T01:30:01.075Z,93839.97
2022-10-05T01:33:19.515Z,93842.16
2022-10-05T01:36:54.634Z,93847.38
2022-10-05T01:40:32.753Z,93840.09
2022-10-05T01:43:38.446Z,93839.34
2022-10-05T01:47:04.235Z,93836.84
2022-10-05T01:50:30.091Z,93843.19
2022-10-05T01:53:47.106Z,93840.28
2022-10-05T01:57:12.380Z,93838.81
2022-10-05T02:00:18.636Z,93835.47
2022-10-05T02:03:46.018Z,93840.06
2022-10-05T02:06:51.549Z,93827.56
2022-10-05T02:10:21.091Z,93835.78
2022-10-05T02:13:33.135Z,93830.81
2022-10-05T02:16:41.539Z,93836.25
2022-10-05T02:19:59.613Z,93828.06
2022-10-05T02:23:11.614Z,93829.06
2022-10-05T02:26:17.181Z,93831.44
2022-10-05T02:29:24.537Z,93833.31
2022-10-05T02:32:38.219Z,93811.94
2022-10-05T02:35:41.358Z,93811.00
2022-10-05T02:38:55.097Z,93801.66
2022-10-05T02:42:07.358Z,93806.53
2022-10-05T02:45:17.938Z,93802.50
2022-10-05T02:48:40.628Z,93804.78
2022-10-05T02:52:12.313Z,93801.25
2022-10-05T02:55:20.415Z,93798.59
2022-10-05T02:58:28.599Z,93791.78
2022-10-05T03:01:44.964Z,93797.72
2022-10-05T03:05:11.655Z,93786.81
2022-10-05T03:08:29.892Z,93787.03
2022-10-05T03:11:54.718Z,93783.22
2022-10-05T03:15:24.448Z,93774.28
2022-10-05T03:18:36.290Z,93781.47
2022-10-05T03:21:53.840Z,93780.75
2022-10-05T03:25:27.422Z,93780.09
2022-10-05T03:28:40.231Z,93772.16
2022-10-05T03:31:55.038Z,93764.75
2022-10-05T03:35:28.199Z,93765.41
2022-10-05T03:38:54.716Z,93760.88
2022-10-05T03:42:09.962Z,93755.72
2022-10-05T03:45:28.069Z,93755.22
2022-10-05T03:48:41.642Z,93750.81
2022-10-05T03:51:51.821Z,93740.00
2022-10-05T03:55:06.324Z,93742.97
2022-10-05T03:58:35.210Z,93741.25
2022-10-05T04:02:07.090Z,93737.88
2022-10-05T04:05:10.246Z,93732.50
2022-10-05T04:08:45.364Z,93732.44
2022-10-05T04:12:28.160Z,93728.53
2022-10-05T04:15:43.261Z,93719.88
2022-10-05T04:18:57.216Z,93717.78
2022-10-05T04:22:16.565Z,93722.16
2022-10-05T04:25:27.293Z,93715.75
2022-10-05T04:28:50.915Z,93715.47
2022-10-05T04:32:08.686Z,93712.13
2022-10-05T04:35:44.828Z,93711.59
2022-10-05T04:38:53.720Z,93706.72
2022-10-05T04:42:39.007Z,93691.88
2022-10-05T04:45:52.145Z,93692.09
2022-10-05T04:49:14.211Z,93692.34
2022-10-05T04:52:36.637Z,93683.81
2022-10-05T04:56:07.658Z,93679.06
2022-10-05T04:59:36.492Z,93676.84
2022-10-05T05:02:49.591Z,93671.63
2022-10-05T05:06:16.344Z,93672.63
2022-10-05T05:09:35.615Z,93676.16
2022-10-05T05:13:05.430Z,93668.50
2022-10-05T05:16:31.202Z,93678.66
2022-10-05T05:19:41.668Z,93675.06
2022-10-05T05:23:09.526Z,93669.88
2022-10-05T05:26:29.606Z,93665.72
2022-10-05T05:29:45.054Z,93659.03
2022-10-05T05:32:57.573Z,93656.97
2022-10-05T05:36:23.386Z,93643.03
2022-10-05T05:40:14.630Z,93634.31
2022-10-05T05:43:49.951Z,93634.59
2022-10-05T05:47:05.078Z,93626.38
2022-10-05T05:50:33.043Z,93627.03
2022-10-05T05:54:26.545Z,93626.31
2022-10-05T05:57:42.129Z,93622.63
2022-10-05T06:01:32.170Z,93619.19
2022-10-05T06:05:24.675Z,93614.66
2022-10-05T06:08:34.045Z,93604.78
2022-10-05T06:11:57.691Z,93602.25
2022-10-05T06:15:13.512Z,93603.06
2022-10-05T06:18:21.157Z,93597.25
2022-10-05T06:21:45.352Z,93601.94
2022-10-05T06:25:00.624Z,93592.34
2022-10-05T06:28:15.539Z,93587.84
2022-10-05T06:32:01.423Z,93602.19
2022-10-05T06:35:50.018Z,93599.13
2022-10-05T06:39:26.868Z,93598.81
2022-10-05T06:42:46.802Z,93595.22
2022-10-05T06:46:06.735Z,93595.97
2022-10-05T06:49:52.236Z,93591.78
2022-10-05T06:53:24.040Z,93584.97
2022-10-05T06:56:46.173Z,93587.69
2022-10-05T07:00:25.471Z,93580.09
2022-10-05T07:03:49.584Z,93585.97
2022-10-05T07:07:31.320Z,93578.22
2022-10-05T07:10:44.395Z,93576.16
2022-10-05T07:14:07.653Z,93566.09
2022-10-05T07:17:35.622Z,93561.41
2022-10-05T07:21:02.264Z,93558.81
2022-10-05T07:24:11.927Z,93551.66
2022-10-05T07:27:21.518Z,93563.34
2022-10-05T07:30:24.931Z,93563.25
2022-10-05T07:33:51.157Z,93564.41
2022-10-05T07:37:24.413Z,93555.66
2022-10-05T07:40:34.597Z,93556.13
2022-10-05T07:44:02.550Z,93557.41
2022-10-05T07:47:19.218Z,93558.63
2022-10-05T07:50:48.668Z,93559.19
2022-10-05T07:54:15.526Z,93550.56
2022-10-05T07:57:28.163Z,93554.25
2022-10-05T08:01:00.081Z,93547.63
2022-10-05T08:04:16.867Z,93550.19
2022-10-05T08:07:20.803Z,93543.00
2022-10-05T08:10:37.663Z,93549.53
2022-10-05T08:13:53.825Z,93550.19
2022-10-05T08:16:59.819Z,93552.88
2022-10-05T08:20:11.408Z,93543.16
2022-10-05T08:23:40.758Z,93547.84
2022-10-05T08:26:53.840Z,93536.19
2022-10-05T08:30:01.984Z,93548.38
2022-10-05T08:33:15.973Z,93542.41
2022-10-05T08:36:29.099Z,93539.06
2022-10-05T08:39:41.048Z,93541.00
2022-10-05T08:42:53.123Z,93543.44
2022-10-05T08:46:11.564Z,93538.88
2022-10-05T08:49:40.020Z,93537.16
2022-10-05T08:53:12.858Z,93538.91
2022-10-05T08:56:31.156Z,93539.38
2022-10-05T08:59:59.845Z,93541.91
2022-10-05T09:03:34.275Z,93536.06
2022-10-05T09:06:58.758Z,93535.41
2022-10-05T09:10:11.045Z,93535.41
2022-10-05T09:13:20.306Z,93531.34
2022-10-05T09:16:26.218Z,93530.03
2022-10-05T09:19:44.033Z,93538.97
2022-10-05T09:22:58.296Z,93531.50
2022-10-05T09:26:25.895Z,93526.88
2022-10-05T09:30:05.991Z,93531.28
2022-10-05T09:33:19.095Z,93534.38
2022-10-05T09:36:50.288Z,93533.63
2022-10-05T09:40:29.957Z,93525.19
2022-10-05T09:43:57.286Z,93523.75
2022-10-05T09:47:42.576Z,93520.41
2022-10-05T09:50:55.064Z,93519.69
2022-10-05T09:54:29.913Z,93520.44
2022-10-05T09:57:52.463Z,93525.59
2022-10-05T10:01:29.012Z,93519.69
2022-10-05T10:05:05.920Z,93517.81
2022-10-05T10:08:43.075Z,93515.81
2022-10-05T10:11:55.547Z,93520.28
2022-10-05T10:15:28.821Z,93519.53
2022-10-05T10:18:57.148Z,93516.91
2022-10-05T10:22:17.795Z,93518.75
2022-10-05T10:25:50.873Z,93522.03
2022-10-05T10:29:19.501Z,93523.88
2022-10-05T10:32:37.539Z,93527.13
2022-10-05T10:36:15.987Z,93526.44
2022-10-05T10:39:52.365Z,93536.69
2022-10-05T10:43:02.478Z,93528.09
2022-10-05T10:46:40.135Z,93539.78
2022-10-05T10:49:52.867Z,93539.66
2022-10-05T10:53:14.662Z,93538.88
2022-10-05T10:56:48.133Z,93535.53
2022-10-05T11:00:18.479Z,93532.09
2022-10-05T11:03:33.524Z,93533.88
2022-10-05T11:06:54.804Z,93537.06
2022-10-05T11:10:24.050Z,93529.88
2022-10-05T11:14:03.307Z,93529.81
2022-10-05T11:17:43.787Z,93527.84
2022-10-05T11:20:56.920Z,93528.56
2022-10-05T11:24:04.521Z,93529.97
2022-10-05T11:31:03.007Z,93537.59
2022-10-05T11:34:52.191Z,93534.28
2022-10-05T11:38:23.257Z,93524.47
2022-10-05T11:41:47.703Z,93529.03
2022-10-05T11:45:15.391Z,93521.91
2022-10-05T11:48:18.697Z,93525.91
2022-10-05T11:51:29.020Z,93520.13
2022-10-05T11:55:09.124Z,93524.78
2022-10-05T11:58:27.052Z,93522.84
2022-10-05T12:01:42.167Z,93519.66
2022-10-05T12:05:03.176Z,93528.81
2022-10-05T12:08:45.495Z,93516.81
2022-10-05T12:12:19.614Z,93513.94
2022-10-05T12:15:32.505Z,93515.09
2022-10-05T12:18:39.962Z,93513.16
2022-10-05T12:21:52.640Z,93508.75
2022-10-05T12:25:12.894Z,93506.25
2022-10-05T12:28:23.586Z,93507.31
2022-10-05T12:31:57.812Z,93502.66
2022-10-05T12:35:05.879Z,93499.50
2022-10-05T12:38:26.282Z,93497.63
2022-10-05T12:41:39.576Z,93498.03
2022-10-05T12:45:27.192Z,93492.72
2022-10-05T12:48:57.789Z,93481.34
2022-10-05T12:52:04.397Z,93489.69
2022-10-05T12:55:35.414Z,93484.31
2022-10-05T12:58:56.597Z,93481.25
2022-10-05T13:02:12.708Z,93473.94
2022-10-05T13:05:45.625Z,93479.31
2022-10-05T13:09:23.293Z,93473.09
2022-10-05T13:12:36.656Z,93480.72
2022-10-05T13:15:59.080Z,93478.47
2022-10-05T13:19:19.597Z,93476.59
2022-10-05T13:22:33.500Z,93475.19
2022-10-05T13:25:43.317Z,93471.66
2022-10-05T13:29:18.385Z,93469.41
2022-10-05T13:32:28.196Z,93474.41
2022-10-05T13:35:42.944Z,93471.28
2022-10-05T13:39:16.435Z,93467.63
2022-10-05T13:42:48.886Z,93469.75
2022-10-05T13:46:37.571Z,93465.31
2022-10-05T13:49:58.962Z,93465.97
2022-10-05T13:53:14.266Z,93465.97
2022-10-05T13:56:28.297Z,93449.84
2022-10-05T13:59:42.618Z,93458.34
2022-10-05T14:02:50.726Z,93452.50
2022-10-05T14:05:59.896Z,93458.03
2022-10-05T14:09:03.324Z,93452.78
2022-10-05T14:12:06.468Z,93452.63
2022-10-05T14:15:23.956Z,93456.47
2022-10-05T14:18:31.559Z,93442.63
2022-10-05T14:21:50.159Z,93446.34
2022-10-05T14:25:08.690Z,93448.47
2022-10-05T14:28:26.443Z,93447.59
2022-10-05T14:31:48.580Z,93443.56
2022-10-05T14:35:05.808Z,93442.97
2022-10-05T14:38:30.091Z,93442.31
2022-10-05T14:41:38.215Z,93444.59
2022-10-05T14:44:41.780Z,93440.06
2022-10-05T14:48:02.354Z,93445.50
2022-10-05T14:51:12.109Z,93443.22
2022-10-05T14:54:44.979Z,93441.56
2022-10-05T14:58:13.895Z,93437.50
2022-10-05T15:01:33.297Z,93441.91
2022-10-05T15:05:10.353Z,93432.38
2022-10-05T15:08:39.725Z,93439.41
2022-10-05T15:11:52.330Z,93433.91
2022-10-05T15:15:04.167Z,93430.50
2022-10-05T15:18:28.362Z,93431.16
2022-10-05T15:22:18.632Z,93426.94
2022-10-05T15:25:37.750Z,93426.59
2022-10-05T15:28:50.269Z,93424.81
2022-10-05T15:32:15.342Z,93422.88
2022-10-05T15:35:37.372Z,93424.06
2022-10-05T15:38:46.482Z,93422.75
2022-10-05T15:42:15.905Z,93420.81
2022-10-05T15:45:38.100Z,93421.84
2022-10-05T15:48:59.282Z,93423.34
2022-10-05T15:52:07.082Z,93419.59
2022-10-05T15:55:28.253Z,93414.47
2022-10-05T15:58:37.088Z,93413.69
2022-10-05T16:02:01.324Z,93414.47
2022-10-05T16:06:07.403Z,93411.59
2022-10-05T16:09:25.212Z,93411.78
2022-10-05T16:12:31.457Z,93409.25
2022-10-05T16:16:23.956Z,93402.28
2022-10-05T16:19:46.891Z,93404.88
2022-10-05T16:23:18.380Z,93401.63
2022-10-05T16:26:24.716Z,93401.69
2022-10-05T16:29:49.011Z,93392.09
2022-10-05T16:33:11.682Z,93395.97
2022-10-05T16:36:24.840Z,93393.53
2022-10-05T16:39:46.350Z,93387.69
2022-10-05T16:43:27.511Z,93380.59
2022-10-05T16:46:43.323Z,93383.88
2022-10-05T16:50:15.335Z,93374.25
2022-10-05T16:53:20.861Z,93374.97
2022-10-05T16:56:29.264Z,93377.06
2022-10-05T16:59:38.116Z,93373.19
2022-10-05T17:03:12.012Z,93374.50
2022-10-05T17:06:27.776Z,93374.47
2022-10-05T17:09:48.148Z,93376.25
2022-10-05T17:13:20.967Z,93371.59
2022-10-05T17:17:02.617Z,93369.03
2022-10-05T17:20:33.854Z,93365.16
2022-10-05T17:23:46.224Z,93369.69
2022-10-05T17:27:26.354Z,93369.56
2022-10-05T17:30:48.967Z,93366.84
2022-10-05T17:34:01.178Z,93365.53
2022-10-05T17:37:40.984Z,93362.97
2022-10-05T17:41:03.695Z,93355.88
2022-10-05T17:44:17.097Z,93360.38
2022-10-05T17:47:56.546Z,93360.38
2022-10-05T17:51:17.940Z,93353.19
2022-10-05T17:55:09.787Z,93343.38
2022-10-05T17:58:25.094Z,93345.81
2022-10-05T18:01:33.172Z,93343.19
2022-10-05T18:04:40.642Z,93336.09
2022-10-05T18:07:49.072Z,93346.38
2022-10-05T18:11:13.452Z,93336.56
2022-10-05T18:14:25.308Z,93327.41
2022-10-05T18:17:46.811Z,93336.41
2022-10-05T18:21:16.303Z,93326.59
2022-10-05T18:24:46.683Z,93327.16
2022-10-05T18:28:22.784Z,93330.38
2022-10-05T18:31:40.472Z,93327.16
2022-10-05T18:34:53.698Z,93324.56
2022-10-05T18:38:27.624Z,93314.25
2022-10-05T18:41:46.031Z,93321.31
2022-10-05T18:45:03.959Z,93318.66
2022-10-05T18:48:57.253Z,93324.41
2022-10-05T18:52:10.886Z,93315.94
2022-10-05T18:55:24.816Z,93316.53
2022-10-05T18:58:53.199Z,93318.53
2022-10-05T19:02:26.857Z,93318.41
2022-10-05T19:06:00.841Z,93311.91
2022-10-05T19:09:30.667Z,93312.56
2022-10-05T19:13:00.178Z,93309.16
2022-10-05T19:16:28.662Z,93305.94
2022-10-05T19:19:56.979Z,93298.69
2022-10-05T19:23:13.045Z,93306.56
2022-10-05T19:26:32.573Z,93299.94
2022-10-05T19:29:57.210Z,93299.16
2022-10-05T19:33:22.117Z,93301.03
2022-10-05T19:37:01.576Z,93293.84
2022-10-05T19:40:27.079Z,93292.06
2022-10-05T19:44:02.092Z,93294.09
2022-10-05T19:47:47.104Z,93282.31
2022-10-05T19:51:16.534Z,93293.19
2022-10-05T19:54:26.404Z,93285.31
2022-10-05T19:57:29.560Z,93285.81
2022-10-05T20:00:35.936Z,93288.47
2022-10-05T20:03:39.029Z,93290.41
2022-10-05T20:06:42.840Z,93289.06
2022-10-05T20:09:53.260Z,93293.66
2022-10-05T20:12:59.461Z,93294.84
2022-10-05T20:16:35.556Z,93294.84
2022-10-05T20:19:58.208Z,93285.81
2022-10-05T20:23:24.350Z,93278.06
2022-10-05T20:27:02.704Z,93271.50
2022-10-05T20:30:07.328Z,93275.88
2022-10-05T20:33:15.170Z,93279.66
2022-10-05T20:36:18.161Z,93270.56
2022-10-05T20:39:22.039Z,93276.28
2022-10-05T20:42:26.069Z,93273.03
2022-10-05T20:45:29.469Z,93276.94
2022-10-05T20:48:32.461Z,93270.38
2022-10-05T20:51:35.485Z,93276.22
2022-10-05T20:54:40.081Z,93271.09
2022-10-05T20:57:43.206Z,93265.28
2022-10-05T21:01:04.706Z,93254.88
2022-10-05T21:04:10.201Z,93265.22
2022-10-05T21:07:13.145Z,93264.56
2022-10-05T21:10:16.117Z,93263.81
2022-10-05T21:13:19.110Z,93266.97
2022-10-05T21:16:23.579Z,93251.41
2022-10-05T21:19:26.705Z,93263.69
2022-10-05T21:22:29.725Z,93254.59
2022-10-05T21:25:34.029Z,93250.69
2022-10-05T21:28:37.166Z,93258.50
2022-10-05T21:31:40.504Z,93256.47
2022-10-05T21:34:43.779Z,93253.22
2022-10-05T21:37:46.705Z,93256.38
2022-10-05T21:40:49.757Z,93261.41
2022-10-05T21:43:52.945Z,93260.13
2022-10-05T21:46:57.031Z,93260.03
2022-10-05T21:50:01.002Z,93261.22
2022-10-05T21:53:06.183Z,93257.91
2022-10-05T21:56:13.370Z,93257.03
2022-10-05T21:59:19.770Z,93264.28
2022-10-05T22:02:22.748Z,93253.28
2022-10-05T22:05:26.166Z,93250.69
2022-10-05T22:08:31.529Z,93253.28
2022-10-05T22:11:34.861Z,93259.03
2022-10-05T22:14:37.815Z,93247.44
2022-10-05T22:17:41.576Z,93251.88
2022-10-05T22:20:46.154Z,93256.38
2022-10-05T22:23:49.547Z,93259.56
2022-10-05T22:26:52.508Z,93256.91
2022-10-05T22:29:57.131Z,93263.41
2022-10-05T22:33:00.055Z,93261.41
2022-10-05T22:36:03.367Z,93261.34
2022-10-05T22:39:06.374Z,93261.97
2022-10-05T22:42:10.024Z,93263.31
2022-10-05T22:45:12.982Z,93262.66
2022-10-05T22:48:16.656Z,93267.16
2022-10-05T22:51:19.619Z,93263.31
2022-10-05T22:54:26.337Z,93265.31
2022-10-05T22:57:39.523Z,93264.19
2022-10-05T23:00:59.104Z,93254.75
2022-10-05T23:04:02.656Z,93261.63
2022-10-05T23:07:05.833Z,93268.31
2022-10-05T23:10:11.663Z,93262.09
2022-10-05T23:13:16.006Z,93258.31
2022-10-05T23:16:21.820Z,93253.34
2022-10-05T23:19:24.812Z,93255.88
2022-10-05T23:22:27.919Z,93267.97
2022-10-05T23:25:30.896Z,93254.72
2022-10-05T23:28:34.131Z,93259.47
2022-10-05T23:31:37.525Z,93256.47
2022-10-05T23:34:40.577Z,93250.94
2022-10-05T23:37:45.223Z,93257.53
2022-10-05T23:40:48.295Z,93254.59
2022-10-05T23:43:51.385Z,93253.59
2022-10-05T23:46:54.313Z,93258.28
2022-10-05T23:49:57.443Z,93254.06
2022-10-05T23:53:00.389Z,93260.13
2022-10-05T23:56:03.759Z,93260.44
2022-10-05T23:59:06.679Z,93254.94
